sensor_id;sensor_type;location;lat;lon;timestamp;P1;durP1;ratioP1;P2;durP2;ratioP2
1759;SDS011;877;46.266;20.062;2022-07-03T00:00:39;6.43;;;4.27;;
1759;SDS011;877;46.266;20.062;2022-07-03T00:03:05;8.50;;;4.80;;
1759;SDS011;877;46.266;20.062;2022-07-03T00:05:38;6.60;;;4.47;;
1759;SDS011;877;46.266;20.062;2022-07-03T00:08:06;8.73;;;4.50;;
1759;SDS011;877;46.266;20.062;2022-07-03T00:10:34;6.10;;;4.40;;
1759;SDS011;877;46.266;20.062;2022-07-03T00:13:01;13.37;;;5.00;;
1759;SDS011;877;46.266;20.062;2022-07-03T00:15:27;6.60;;;3.90;;
1759;SDS011;877;46.266;20.062;2022-07-03T00:17:55;6.00;;;3.80;;
1759;SDS011;877;46.266;20.062;2022-07-03T00:20:23;7.13;;;4.73;;
1759;SDS011;877;46.266;20.062;2022-07-03T00:22:51;5.60;;;4.23;;
1759;SDS011;877;46.266;20.062;2022-07-03T00:25:23;5.70;;;4.43;;
1759;SDS011;877;46.266;20.062;2022-07-03T00:27:50;8.97;;;4.50;;
1759;SDS011;877;46.266;20.062;2022-07-03T00:30:34;6.77;;;4.60;;
1759;SDS011;877;46.266;20.062;2022-07-03T00:33:09;6.23;;;4.60;;
1759;SDS011;877;46.266;20.062;2022-07-03T00:35:37;7.40;;;4.87;;
1759;SDS011;877;46.266;20.062;2022-07-03T00:38:05;6.50;;;4.70;;
1759;SDS011;877;46.266;20.062;2022-07-03T00:40:41;10.30;;;5.10;;
1759;SDS011;877;46.266;20.062;2022-07-03T00:43:16;7.63;;;4.77;;
1759;SDS011;877;46.266;20.062;2022-07-03T00:48:46;8.20;;;6.13;;
1759;SDS011;877;46.266;20.062;2022-07-03T00:51:23;7.17;;;5.90;;
1759;SDS011;877;46.266;20.062;2022-07-03T00:56:28;12.27;;;5.93;;
1759;SDS011;877;46.266;20.062;2022-07-03T00:58:57;7.27;;;6.47;;
1759;SDS011;877;46.266;20.062;2022-07-03T01:01:32;7.30;;;6.60;;
1759;SDS011;877;46.266;20.062;2022-07-03T01:09:16;9.20;;;7.10;;
1759;SDS011;877;46.266;20.062;2022-07-03T01:12:02;10.30;;;7.47;;
1759;SDS011;877;46.266;20.062;2022-07-03T01:22:52;9.60;;;7.80;;
1759;SDS011;877;46.266;20.062;2022-07-03T01:28:12;10.23;;;7.90;;
1759;SDS011;877;46.266;20.062;2022-07-03T01:30:43;12.23;;;8.23;;
1759;SDS011;877;46.266;20.062;2022-07-03T01:36:07;10.00;;;8.33;;
1759;SDS011;877;46.266;20.062;2022-07-03T01:38:44;11.20;;;7.87;;
1759;SDS011;877;46.266;20.062;2022-07-03T01:43:49;12.13;;;8.60;;
1759;SDS011;877;46.266;20.062;2022-07-03T01:46:18;12.83;;;8.47;;
1759;SDS011;877;46.266;20.062;2022-07-03T01:48:52;14.10;;;8.77;;
1759;SDS011;877;46.266;20.062;2022-07-03T01:51:20;10.57;;;8.37;;
1759;SDS011;877;46.266;20.062;2022-07-03T01:53:50;11.90;;;8.90;;
1759;SDS011;877;46.266;20.062;2022-07-03T01:56:17;9.97;;;8.13;;
1759;SDS011;877;46.266;20.062;2022-07-03T01:58:43;9.63;;;8.03;;
1759;SDS011;877;46.266;20.062;2022-07-03T02:06:17;9.60;;;7.70;;
1759;SDS011;877;46.266;20.062;2022-07-03T02:08:50;13.40;;;8.20;;
1759;SDS011;877;46.266;20.062;2022-07-03T02:11:21;10.87;;;8.83;;
1759;SDS011;877;46.266;20.062;2022-07-03T02:16:39;12.47;;;9.97;;
1759;SDS011;877;46.266;20.062;2022-07-03T02:19:11;11.90;;;9.17;;
1759;SDS011;877;46.266;20.062;2022-07-03T02:21:45;8.97;;;8.07;;
1759;SDS011;877;46.266;20.062;2022-07-03T02:26:41;10.10;;;7.90;;
1759;SDS011;877;46.266;20.062;2022-07-03T02:29:15;9.30;;;8.30;;
1759;SDS011;877;46.266;20.062;2022-07-03T02:31:43;11.13;;;10.03;;
1759;SDS011;877;46.266;20.062;2022-07-03T02:36:57;11.27;;;9.47;;
1759;SDS011;877;46.266;20.062;2022-07-03T02:39:48;10.90;;;9.73;;
1759;SDS011;877;46.266;20.062;2022-07-03T02:42:22;13.63;;;10.17;;
1759;SDS011;877;46.266;20.062;2022-07-03T02:44:57;11.20;;;9.77;;
1759;SDS011;877;46.266;20.062;2022-07-03T02:50:04;13.20;;;11.23;;
1759;SDS011;877;46.266;20.062;2022-07-03T02:58:05;12.13;;;9.90;;
1759;SDS011;877;46.266;20.062;2022-07-03T03:00:48;12.63;;;9.97;;
1759;SDS011;877;46.266;20.062;2022-07-03T03:03:19;12.87;;;10.33;;
1759;SDS011;877;46.266;20.062;2022-07-03T03:05:49;13.30;;;9.70;;
1759;SDS011;877;46.266;20.062;2022-07-03T03:13:48;12.23;;;10.17;;
1759;SDS011;877;46.266;20.062;2022-07-03T03:16:15;14.30;;;10.60;;
1759;SDS011;877;46.266;20.062;2022-07-03T03:18:42;14.90;;;10.30;;
1759;SDS011;877;46.266;20.062;2022-07-03T03:21:11;11.07;;;9.87;;
1759;SDS011;877;46.266;20.062;2022-07-03T03:26:29;12.30;;;10.20;;
1759;SDS011;877;46.266;20.062;2022-07-03T03:28:58;12.13;;;10.80;;
1759;SDS011;877;46.266;20.062;2022-07-03T03:31:35;11.53;;;8.97;;
1759;SDS011;877;46.266;20.062;2022-07-03T03:34:03;11.37;;;10.10;;
1759;SDS011;877;46.266;20.062;2022-07-03T03:36:37;16.10;;;11.00;;
1759;SDS011;877;46.266;20.062;2022-07-03T03:41:39;17.80;;;10.60;;
1759;SDS011;877;46.266;20.062;2022-07-03T03:44:05;21.87;;;11.53;;
1759;SDS011;877;46.266;20.062;2022-07-03T03:46:33;13.20;;;10.70;;
1759;SDS011;877;46.266;20.062;2022-07-03T03:48:59;12.90;;;10.40;;
1759;SDS011;877;46.266;20.062;2022-07-03T03:51:25;15.63;;;10.60;;
1759;SDS011;877;46.266;20.062;2022-07-03T03:53:52;12.33;;;9.63;;
1759;SDS011;877;46.266;20.062;2022-07-03T03:56:20;11.90;;;10.50;;
1759;SDS011;877;46.266;20.062;2022-07-03T04:01:44;13.97;;;10.80;;
1759;SDS011;877;46.266;20.062;2022-07-03T04:04:12;11.30;;;9.83;;
1759;SDS011;877;46.266;20.062;2022-07-03T04:06:43;15.03;;;9.90;;
1759;SDS011;877;46.266;20.062;2022-07-03T04:09:10;13.07;;;11.10;;
1759;SDS011;877;46.266;20.062;2022-07-03T04:11:38;14.40;;;10.87;;
1759;SDS011;877;46.266;20.062;2022-07-03T04:16:37;12.53;;;9.83;;
1759;SDS011;877;46.266;20.062;2022-07-03T04:19:04;13.77;;;11.40;;
1759;SDS011;877;46.266;20.062;2022-07-03T04:21:34;13.90;;;11.00;;
1759;SDS011;877;46.266;20.062;2022-07-03T04:24:01;17.97;;;10.80;;
1759;SDS011;877;46.266;20.062;2022-07-03T04:26:28;12.37;;;11.00;;
1759;SDS011;877;46.266;20.062;2022-07-03T04:28:56;12.93;;;10.60;;
1759;SDS011;877;46.266;20.062;2022-07-03T04:31:22;12.73;;;11.07;;
1759;SDS011;877;46.266;20.062;2022-07-03T04:33:48;12.60;;;10.60;;
1759;SDS011;877;46.266;20.062;2022-07-03T04:36:19;11.73;;;9.60;;
1759;SDS011;877;46.266;20.062;2022-07-03T04:38:45;11.07;;;9.90;;
1759;SDS011;877;46.266;20.062;2022-07-03T04:41:19;12.13;;;9.93;;
1759;SDS011;877;46.266;20.062;2022-07-03T04:46:16;12.90;;;10.60;;
1759;SDS011;877;46.266;20.062;2022-07-03T04:48:43;11.90;;;9.90;;
1759;SDS011;877;46.266;20.062;2022-07-03T04:53:56;12.83;;;9.70;;
1759;SDS011;877;46.266;20.062;2022-07-03T04:56:24;11.93;;;10.67;;
1759;SDS011;877;46.266;20.062;2022-07-03T04:58:59;17.17;;;11.90;;
1759;SDS011;877;46.266;20.062;2022-07-03T05:01:26;10.87;;;9.77;;
1759;SDS011;877;46.266;20.062;2022-07-03T05:03:59;10.97;;;9.43;;
1759;SDS011;877;46.266;20.062;2022-07-03T05:06:25;13.77;;;10.67;;
1759;SDS011;877;46.266;20.062;2022-07-03T05:08:51;11.70;;;10.50;;
1759;SDS011;877;46.266;20.062;2022-07-03T05:11:29;10.77;;;9.67;;
1759;SDS011;877;46.266;20.062;2022-07-03T05:13:56;11.70;;;10.20;;
1759;SDS011;877;46.266;20.062;2022-07-03T05:16:28;12.03;;;10.73;;
1759;SDS011;877;46.266;20.062;2022-07-03T05:18:55;13.07;;;10.90;;
1759;SDS011;877;46.266;20.062;2022-07-03T05:21:30;15.33;;;10.93;;
1759;SDS011;877;46.266;20.062;2022-07-03T05:24:04;12.90;;;10.80;;
1759;SDS011;877;46.266;20.062;2022-07-03T05:26:38;12.50;;;11.13;;
1759;SDS011;877;46.266;20.062;2022-07-03T05:29:04;11.43;;;10.07;;
1759;SDS011;877;46.266;20.062;2022-07-03T05:31:36;12.83;;;10.73;;
1759;SDS011;877;46.266;20.062;2022-07-03T05:34:08;13.40;;;11.20;;
1759;SDS011;877;46.266;20.062;2022-07-03T05:39:06;12.60;;;10.43;;
1759;SDS011;877;46.266;20.062;2022-07-03T05:41:51;15.10;;;10.90;;
1759;SDS011;877;46.266;20.062;2022-07-03T05:44:24;14.87;;;10.73;;
1759;SDS011;877;46.266;20.062;2022-07-03T05:46:57;12.67;;;11.37;;
1759;SDS011;877;46.266;20.062;2022-07-03T05:49:24;14.70;;;11.30;;
1759;SDS011;877;46.266;20.062;2022-07-03T05:51:52;13.10;;;10.47;;
1759;SDS011;877;46.266;20.062;2022-07-03T05:54:25;13.80;;;10.97;;
1759;SDS011;877;46.266;20.062;2022-07-03T06:04:31;12.20;;;10.90;;
1759;SDS011;877;46.266;20.062;2022-07-03T06:06:57;12.97;;;10.33;;
1759;SDS011;877;46.266;20.062;2022-07-03T06:09:32;12.30;;;11.10;;
1759;SDS011;877;46.266;20.062;2022-07-03T06:12:00;12.60;;;11.27;;
1759;SDS011;877;46.266;20.062;2022-07-03T06:14:27;14.37;;;10.60;;
1759;SDS011;877;46.266;20.062;2022-07-03T06:16:57;12.77;;;11.43;;
1759;SDS011;877;46.266;20.062;2022-07-03T06:19:24;13.70;;;11.47;;
1759;SDS011;877;46.266;20.062;2022-07-03T06:21:51;12.40;;;10.93;;
1759;SDS011;877;46.266;20.062;2022-07-03T06:24:18;13.37;;;11.97;;
1759;SDS011;877;46.266;20.062;2022-07-03T06:27:03;17.10;;;11.60;;
1759;SDS011;877;46.266;20.062;2022-07-03T06:29:30;12.50;;;11.20;;
1759;SDS011;877;46.266;20.062;2022-07-03T06:31:57;13.03;;;11.43;;
1759;SDS011;877;46.266;20.062;2022-07-03T06:34:31;20.60;;;12.57;;
1759;SDS011;877;46.266;20.062;2022-07-03T06:36:58;15.23;;;11.40;;
1759;SDS011;877;46.266;20.062;2022-07-03T06:39:24;12.93;;;11.53;;
1759;SDS011;877;46.266;20.062;2022-07-03T06:41:51;14.00;;;11.77;;
1759;SDS011;877;46.266;20.062;2022-07-03T06:46:46;11.47;;;9.83;;
1759;SDS011;877;46.266;20.062;2022-07-03T06:51:43;11.00;;;9.80;;
1759;SDS011;877;46.266;20.062;2022-07-03T06:54:09;14.47;;;11.33;;
1759;SDS011;877;46.266;20.062;2022-07-03T06:56:36;13.53;;;11.43;;
1759;SDS011;877;46.266;20.062;2022-07-03T06:59:03;14.70;;;11.07;;
1759;SDS011;877;46.266;20.062;2022-07-03T07:01:30;12.83;;;10.97;;
1759;SDS011;877;46.266;20.062;2022-07-03T07:03:56;12.03;;;10.73;;
1759;SDS011;877;46.266;20.062;2022-07-03T07:06:26;11.83;;;10.63;;
1759;SDS011;877;46.266;20.062;2022-07-03T07:08:53;13.80;;;10.80;;
1759;SDS011;877;46.266;20.062;2022-07-03T07:11:21;13.60;;;11.73;;
1759;SDS011;877;46.266;20.062;2022-07-03T07:13:48;12.83;;;10.97;;
1759;SDS011;877;46.266;20.062;2022-07-03T07:16:15;17.20;;;11.67;;
1759;SDS011;877;46.266;20.062;2022-07-03T07:21:11;12.77;;;11.07;;
1759;SDS011;877;46.266;20.062;2022-07-03T07:23:37;13.77;;;12.30;;
1759;SDS011;877;46.266;20.062;2022-07-03T07:26:04;16.07;;;11.77;;
1759;SDS011;877;46.266;20.062;2022-07-03T07:28:30;13.43;;;11.57;;
1759;SDS011;877;46.266;20.062;2022-07-03T07:31:01;12.77;;;11.53;;
1759;SDS011;877;46.266;20.062;2022-07-03T07:33:34;13.90;;;11.03;;
1759;SDS011;877;46.266;20.062;2022-07-03T07:36:04;12.67;;;11.37;;
1759;SDS011;877;46.266;20.062;2022-07-03T07:38:30;12.80;;;11.50;;
1759;SDS011;877;46.266;20.062;2022-07-03T07:40:56;13.30;;;11.90;;
1759;SDS011;877;46.266;20.062;2022-07-03T07:43:22;19.50;;;12.10;;
1759;SDS011;877;46.266;20.062;2022-07-03T07:45:56;14.47;;;12.97;;
1759;SDS011;877;46.266;20.062;2022-07-03T07:48:24;11.57;;;10.37;;
1759;SDS011;877;46.266;20.062;2022-07-03T07:53:25;13.30;;;12.00;;
1759;SDS011;877;46.266;20.062;2022-07-03T07:55:51;16.10;;;11.47;;
1759;SDS011;877;46.266;20.062;2022-07-03T07:58:17;12.67;;;11.23;;
1759;SDS011;877;46.266;20.062;2022-07-03T08:00:45;12.87;;;11.47;;
1759;SDS011;877;46.266;20.062;2022-07-03T08:03:30;13.77;;;10.67;;
1759;SDS011;877;46.266;20.062;2022-07-03T08:06:26;14.30;;;12.30;;
1759;SDS011;877;46.266;20.062;2022-07-03T08:11:24;12.13;;;10.30;;
1759;SDS011;877;46.266;20.062;2022-07-03T08:13:50;11.67;;;10.47;;
1759;SDS011;877;46.266;20.062;2022-07-03T08:16:19;14.90;;;8.93;;
1759;SDS011;877;46.266;20.062;2022-07-03T08:18:45;11.80;;;10.60;;
1759;SDS011;877;46.266;20.062;2022-07-03T08:21:11;15.87;;;11.23;;
1759;SDS011;877;46.266;20.062;2022-07-03T08:23:37;22.50;;;19.57;;
1759;SDS011;877;46.266;20.062;2022-07-03T08:26:04;27.00;;;24.23;;
1759;SDS011;877;46.266;20.062;2022-07-03T08:28:30;12.97;;;11.60;;
1759;SDS011;877;46.266;20.062;2022-07-03T08:30:56;12.27;;;11.00;;
1759;SDS011;877;46.266;20.062;2022-07-03T08:33:22;12.00;;;9.97;;
1759;SDS011;877;46.266;20.062;2022-07-03T08:35:48;10.80;;;9.73;;
1759;SDS011;877;46.266;20.062;2022-07-03T08:38:15;14.33;;;9.73;;
1759;SDS011;877;46.266;20.062;2022-07-03T08:40:41;10.90;;;9.43;;
1759;SDS011;877;46.266;20.062;2022-07-03T08:43:09;11.50;;;9.20;;
1759;SDS011;877;46.266;20.062;2022-07-03T08:45:35;11.00;;;9.33;;
1759;SDS011;877;46.266;20.062;2022-07-03T08:48:03;10.40;;;9.30;;
1759;SDS011;877;46.266;20.062;2022-07-03T08:50:30;13.37;;;9.50;;
1759;SDS011;877;46.266;20.062;2022-07-03T08:52:58;12.60;;;9.37;;
1759;SDS011;877;46.266;20.062;2022-07-03T08:55:27;10.00;;;8.97;;
1759;SDS011;877;46.266;20.062;2022-07-03T08:57:54;10.40;;;8.87;;
1759;SDS011;877;46.266;20.062;2022-07-03T09:00:21;12.93;;;9.50;;
1759;SDS011;877;46.266;20.062;2022-07-03T09:02:48;11.93;;;9.50;;
1759;SDS011;877;46.266;20.062;2022-07-03T09:05:15;12.67;;;10.03;;
1759;SDS011;877;46.266;20.062;2022-07-03T09:07:42;10.63;;;9.20;;
1759;SDS011;877;46.266;20.062;2022-07-03T09:10:09;13.40;;;9.93;;
1759;SDS011;877;46.266;20.062;2022-07-03T09:12:37;13.30;;;10.20;;
1759;SDS011;877;46.266;20.062;2022-07-03T09:15:03;11.57;;;10.37;;
1759;SDS011;877;46.266;20.062;2022-07-03T09:17:31;15.60;;;11.80;;
1759;SDS011;877;46.266;20.062;2022-07-03T09:19:58;12.17;;;10.30;;
1759;SDS011;877;46.266;20.062;2022-07-03T09:22:26;11.43;;;10.23;;
1759;SDS011;877;46.266;20.062;2022-07-03T09:24:53;13.00;;;10.30;;
1759;SDS011;877;46.266;20.062;2022-07-03T09:27:20;14.50;;;10.00;;
1759;SDS011;877;46.266;20.062;2022-07-03T09:29:50;12.80;;;10.47;;
1759;SDS011;877;46.266;20.062;2022-07-03T09:32:16;12.03;;;9.27;;
1759;SDS011;877;46.266;20.062;2022-07-03T09:34:43;32.63;;;28.90;;
1759;SDS011;877;46.266;20.062;2022-07-03T09:37:09;55.47;;;49.87;;
1759;SDS011;877;46.266;20.062;2022-07-03T09:39:37;13.30;;;11.93;;
1759;SDS011;877;46.266;20.062;2022-07-03T09:42:07;12.03;;;10.70;;
1759;SDS011;877;46.266;20.062;2022-07-03T09:44:44;14.90;;;10.00;;
1759;SDS011;877;46.266;20.062;2022-07-03T09:54:58;10.50;;;9.40;;
1759;SDS011;877;46.266;20.062;2022-07-03T09:57:29;12.00;;;10.00;;
1759;SDS011;877;46.266;20.062;2022-07-03T10:02:53;11.40;;;10.20;;
1759;SDS011;877;46.266;20.062;2022-07-03T10:05:24;10.43;;;9.30;;
1759;SDS011;877;46.266;20.062;2022-07-03T10:07:51;11.13;;;8.87;;
1759;SDS011;877;46.266;20.062;2022-07-03T10:10:18;12.10;;;8.87;;
1759;SDS011;877;46.266;20.062;2022-07-03T10:12:45;11.57;;;8.83;;
1759;SDS011;877;46.266;20.062;2022-07-03T10:15:13;13.57;;;9.77;;
1759;SDS011;877;46.266;20.062;2022-07-03T10:17:41;10.80;;;9.70;;
1759;SDS011;877;46.266;20.062;2022-07-03T10:20:10;9.60;;;8.60;;
1759;SDS011;877;46.266;20.062;2022-07-03T10:22:38;12.73;;;8.67;;
1759;SDS011;877;46.266;20.062;2022-07-03T10:25:07;9.53;;;8.40;;
1759;SDS011;877;46.266;20.062;2022-07-03T10:27:35;12.47;;;9.73;;
1759;SDS011;877;46.266;20.062;2022-07-03T10:30:02;10.77;;;8.00;;
1759;SDS011;877;46.266;20.062;2022-07-03T10:32:31;10.50;;;8.50;;
1759;SDS011;877;46.266;20.062;2022-07-03T10:35:00;9.90;;;8.27;;
1759;SDS011;877;46.266;20.062;2022-07-03T10:37:28;9.30;;;8.37;;
1759;SDS011;877;46.266;20.062;2022-07-03T10:42:42;9.17;;;7.87;;
1759;SDS011;877;46.266;20.062;2022-07-03T10:45:30;9.37;;;7.77;;
1759;SDS011;877;46.266;20.062;2022-07-03T10:47:57;10.03;;;8.30;;
1759;SDS011;877;46.266;20.062;2022-07-03T10:50:23;9.50;;;8.50;;
1759;SDS011;877;46.266;20.062;2022-07-03T10:52:50;8.30;;;7.37;;
1759;SDS011;877;46.266;20.062;2022-07-03T10:55:16;9.87;;;7.87;;
1759;SDS011;877;46.266;20.062;2022-07-03T10:57:43;11.80;;;7.53;;
1759;SDS011;877;46.266;20.062;2022-07-03T11:00:30;11.87;;;8.37;;
1759;SDS011;877;46.266;20.062;2022-07-03T11:02:56;8.07;;;7.30;;
1759;SDS011;877;46.266;20.062;2022-07-03T11:05:23;8.07;;;7.27;;
1759;SDS011;877;46.266;20.062;2022-07-03T11:18:41;10.43;;;6.70;;
1759;SDS011;877;46.266;20.062;2022-07-03T11:25:39;9.33;;;7.90;;
1759;SDS011;877;46.266;20.062;2022-07-03T11:28:05;14.83;;;8.10;;
1759;SDS011;877;46.266;20.062;2022-07-03T11:30:32;9.73;;;6.43;;
1759;SDS011;877;46.266;20.062;2022-07-03T11:32:58;8.20;;;6.90;;
1759;SDS011;877;46.266;20.062;2022-07-03T11:38:23;8.10;;;6.67;;
1759;SDS011;877;46.266;20.062;2022-07-03T11:40:50;6.93;;;5.90;;
1759;SDS011;877;46.266;20.062;2022-07-03T11:43:17;7.13;;;6.13;;
1759;SDS011;877;46.266;20.062;2022-07-03T11:45:44;9.00;;;6.40;;
1759;SDS011;877;46.266;20.062;2022-07-03T11:48:15;9.27;;;6.87;;
1759;SDS011;877;46.266;20.062;2022-07-03T11:50:43;8.93;;;7.40;;
1759;SDS011;877;46.266;20.062;2022-07-03T11:53:19;8.40;;;7.13;;
1759;SDS011;877;46.266;20.062;2022-07-03T11:55:46;10.10;;;7.00;;
1759;SDS011;877;46.266;20.062;2022-07-03T11:58:12;12.03;;;6.00;;
1759;SDS011;877;46.266;20.062;2022-07-03T12:00:39;7.80;;;5.47;;
1759;SDS011;877;46.266;20.062;2022-07-03T12:03:05;7.90;;;5.93;;
1759;SDS011;877;46.266;20.062;2022-07-03T12:05:32;10.70;;;6.33;;
1759;SDS011;877;46.266;20.062;2022-07-03T12:08:02;7.57;;;6.30;;
1759;SDS011;877;46.266;20.062;2022-07-03T12:10:39;7.80;;;5.90;;
1759;SDS011;877;46.266;20.062;2022-07-03T12:13:26;15.67;;;6.50;;
1759;SDS011;877;46.266;20.062;2022-07-03T12:15:52;8.00;;;6.40;;
1759;SDS011;877;46.266;20.062;2022-07-03T12:18:19;8.60;;;5.67;;
1759;SDS011;877;46.266;20.062;2022-07-03T12:20:45;8.70;;;5.60;;
1759;SDS011;877;46.266;20.062;2022-07-03T12:23:11;7.17;;;5.63;;
1759;SDS011;877;46.266;20.062;2022-07-03T12:25:40;7.63;;;5.47;;
1759;SDS011;877;46.266;20.062;2022-07-03T12:28:10;11.37;;;6.60;;
1759;SDS011;877;46.266;20.062;2022-07-03T12:30:36;8.33;;;5.67;;
1759;SDS011;877;46.266;20.062;2022-07-03T12:33:03;6.57;;;5.33;;
1759;SDS011;877;46.266;20.062;2022-07-03T12:35:30;5.90;;;4.97;;
1759;SDS011;877;46.266;20.062;2022-07-03T12:37:56;7.80;;;5.37;;
1759;SDS011;877;46.266;20.062;2022-07-03T12:40:22;11.17;;;5.73;;
1759;SDS011;877;46.266;20.062;2022-07-03T12:45:25;9.33;;;5.97;;
1759;SDS011;877;46.266;20.062;2022-07-03T12:47:58;8.30;;;5.50;;
1759;SDS011;877;46.266;20.062;2022-07-03T12:50:25;9.63;;;6.20;;
1759;SDS011;877;46.266;20.062;2022-07-03T12:52:55;6.93;;;5.70;;
1759;SDS011;877;46.266;20.062;2022-07-03T12:55:26;7.53;;;5.37;;
1759;SDS011;877;46.266;20.062;2022-07-03T12:58:11;7.23;;;4.80;;
1759;SDS011;877;46.266;20.062;2022-07-03T13:00:56;10.67;;;5.43;;
1759;SDS011;877;46.266;20.062;2022-07-03T13:03:26;8.23;;;5.63;;
1759;SDS011;877;46.266;20.062;2022-07-03T13:05:52;6.67;;;5.10;;
1759;SDS011;877;46.266;20.062;2022-07-03T13:08:18;8.17;;;5.50;;
1759;SDS011;877;46.266;20.062;2022-07-03T13:10:44;7.10;;;5.00;;
1759;SDS011;877;46.266;20.062;2022-07-03T13:13:19;6.90;;;5.23;;
1759;SDS011;877;46.266;20.062;2022-07-03T13:15:46;6.50;;;4.90;;
1759;SDS011;877;46.266;20.062;2022-07-03T13:18:13;5.97;;;5.30;;
1759;SDS011;877;46.266;20.062;2022-07-03T13:20:39;6.17;;;5.00;;
1759;SDS011;877;46.266;20.062;2022-07-03T13:23:06;7.20;;;5.50;;
1759;SDS011;877;46.266;20.062;2022-07-03T13:25:35;7.30;;;5.27;;
1759;SDS011;877;46.266;20.062;2022-07-03T13:30:30;7.27;;;5.30;;
1759;SDS011;877;46.266;20.062;2022-07-03T13:32:57;7.80;;;5.80;;
1759;SDS011;877;46.266;20.062;2022-07-03T13:35:23;7.47;;;5.00;;
1759;SDS011;877;46.266;20.062;2022-07-03T13:37:49;6.90;;;5.70;;
1759;SDS011;877;46.266;20.062;2022-07-03T13:40:15;9.37;;;5.70;;
1759;SDS011;877;46.266;20.062;2022-07-03T13:42:42;7.70;;;5.40;;
1759;SDS011;877;46.266;20.062;2022-07-03T13:45:08;7.67;;;5.40;;
1759;SDS011;877;46.266;20.062;2022-07-03T13:47:35;8.03;;;5.33;;
1759;SDS011;877;46.266;20.062;2022-07-03T13:50:03;13.30;;;11.20;;
1759;SDS011;877;46.266;20.062;2022-07-03T13:52:29;9.83;;;6.07;;
1759;SDS011;877;46.266;20.062;2022-07-03T13:54:56;7.73;;;5.40;;
1759;SDS011;877;46.266;20.062;2022-07-03T13:57:22;6.10;;;5.50;;
1759;SDS011;877;46.266;20.062;2022-07-03T13:59:48;12.40;;;5.77;;
1759;SDS011;877;46.266;20.062;2022-07-03T14:02:15;6.77;;;4.30;;
1759;SDS011;877;46.266;20.062;2022-07-03T14:04:41;9.93;;;5.20;;
1759;SDS011;877;46.266;20.062;2022-07-03T14:07:07;8.03;;;5.63;;
1759;SDS011;877;46.266;20.062;2022-07-03T14:09:34;6.43;;;4.53;;
1759;SDS011;877;46.266;20.062;2022-07-03T14:12:00;7.23;;;5.60;;
1759;SDS011;877;46.266;20.062;2022-07-03T14:14:26;6.80;;;5.43;;
1759;SDS011;877;46.266;20.062;2022-07-03T14:16:52;7.07;;;5.73;;
1759;SDS011;877;46.266;20.062;2022-07-03T14:19:19;10.17;;;4.83;;
1759;SDS011;877;46.266;20.062;2022-07-03T14:21:45;7.50;;;5.00;;
1759;SDS011;877;46.266;20.062;2022-07-03T14:24:11;4.97;;;4.43;;
1759;SDS011;877;46.266;20.062;2022-07-03T14:26:37;8.57;;;5.57;;
1759;SDS011;877;46.266;20.062;2022-07-03T14:29:22;7.53;;;5.00;;
1759;SDS011;877;46.266;20.062;2022-07-03T14:32:18;8.13;;;5.57;;
1759;SDS011;877;46.266;20.062;2022-07-03T14:34:58;9.03;;;5.10;;
1759;SDS011;877;46.266;20.062;2022-07-03T14:37:24;9.20;;;5.17;;
1759;SDS011;877;46.266;20.062;2022-07-03T14:39:50;7.70;;;4.80;;
1759;SDS011;877;46.266;20.062;2022-07-03T14:42:17;7.77;;;4.80;;
1759;SDS011;877;46.266;20.062;2022-07-03T14:44:43;7.40;;;5.10;;
1759;SDS011;877;46.266;20.062;2022-07-03T14:47:10;6.80;;;4.80;;
1759;SDS011;877;46.266;20.062;2022-07-03T14:49:36;6.87;;;5.10;;
1759;SDS011;877;46.266;20.062;2022-07-03T14:52:04;7.83;;;5.40;;
1759;SDS011;877;46.266;20.062;2022-07-03T14:54:30;7.33;;;5.30;;
1759;SDS011;877;46.266;20.062;2022-07-03T14:56:57;5.80;;;4.60;;
1759;SDS011;877;46.266;20.062;2022-07-03T15:02:00;7.13;;;4.70;;
1759;SDS011;877;46.266;20.062;2022-07-03T15:06:57;10.87;;;5.30;;
1759;SDS011;877;46.266;20.062;2022-07-03T15:09:28;9.40;;;5.03;;
1759;SDS011;877;46.266;20.062;2022-07-03T15:11:56;7.07;;;4.80;;
1759;SDS011;877;46.266;20.062;2022-07-03T15:14:42;6.13;;;5.13;;
1759;SDS011;877;46.266;20.062;2022-07-03T15:17:08;7.30;;;4.93;;
1759;SDS011;877;46.266;20.062;2022-07-03T15:19:35;7.00;;;5.07;;
1759;SDS011;877;46.266;20.062;2022-07-03T15:22:02;5.60;;;4.87;;
1759;SDS011;877;46.266;20.062;2022-07-03T15:24:29;7.47;;;5.27;;
1759;SDS011;877;46.266;20.062;2022-07-03T15:26:56;5.90;;;4.90;;
1759;SDS011;877;46.266;20.062;2022-07-03T15:29:23;6.03;;;4.40;;
1759;SDS011;877;46.266;20.062;2022-07-03T15:31:49;10.00;;;4.57;;
1759;SDS011;877;46.266;20.062;2022-07-03T15:34:15;7.10;;;4.90;;
1759;SDS011;877;46.266;20.062;2022-07-03T15:36:43;7.00;;;5.07;;
1759;SDS011;877;46.266;20.062;2022-07-03T15:39:13;7.90;;;4.93;;
1759;SDS011;877;46.266;20.062;2022-07-03T15:41:54;7.83;;;5.23;;
1759;SDS011;877;46.266;20.062;2022-07-03T15:49:29;6.30;;;4.73;;
1759;SDS011;877;46.266;20.062;2022-07-03T15:57:09;6.13;;;4.83;;
1759;SDS011;877;46.266;20.062;2022-07-03T15:59:43;8.70;;;4.70;;
1759;SDS011;877;46.266;20.062;2022-07-03T16:02:12;7.90;;;4.67;;
1759;SDS011;877;46.266;20.062;2022-07-03T16:07:18;8.20;;;5.20;;
1759;SDS011;877;46.266;20.062;2022-07-03T16:09:48;6.60;;;4.30;;
1759;SDS011;877;46.266;20.062;2022-07-03T16:12:14;8.20;;;4.50;;
1759;SDS011;877;46.266;20.062;2022-07-03T16:14:51;10.70;;;5.00;;
1759;SDS011;877;46.266;20.062;2022-07-03T16:17:21;6.97;;;5.03;;
1759;SDS011;877;46.266;20.062;2022-07-03T16:19:49;6.70;;;5.03;;
1759;SDS011;877;46.266;20.062;2022-07-03T16:22:15;10.00;;;5.50;;
1759;SDS011;877;46.266;20.062;2022-07-03T16:24:42;12.53;;;4.50;;
1759;SDS011;877;46.266;20.062;2022-07-03T16:27:17;8.40;;;6.07;;
1759;SDS011;877;46.266;20.062;2022-07-03T16:29:46;11.00;;;5.40;;
1759;SDS011;877;46.266;20.062;2022-07-03T16:32:14;6.73;;;5.10;;
1759;SDS011;877;46.266;20.062;2022-07-03T16:37:47;10.80;;;6.10;;
1759;SDS011;877;46.266;20.062;2022-07-03T16:40:21;11.90;;;5.80;;
1759;SDS011;877;46.266;20.062;2022-07-03T16:42:48;8.37;;;4.80;;
1759;SDS011;877;46.266;20.062;2022-07-03T16:45:18;5.53;;;4.00;;
1759;SDS011;877;46.266;20.062;2022-07-03T16:47:47;7.40;;;5.20;;
1759;SDS011;877;46.266;20.062;2022-07-03T16:50:19;8.63;;;4.87;;
1759;SDS011;877;46.266;20.062;2022-07-03T16:52:47;9.63;;;5.13;;
1759;SDS011;877;46.266;20.062;2022-07-03T16:55:13;8.60;;;4.50;;
1759;SDS011;877;46.266;20.062;2022-07-03T16:57:50;6.33;;;4.87;;
1759;SDS011;877;46.266;20.062;2022-07-03T17:00:18;5.83;;;5.00;;
1759;SDS011;877;46.266;20.062;2022-07-03T17:02:45;6.33;;;5.13;;
1759;SDS011;877;46.266;20.062;2022-07-03T17:05:13;5.17;;;4.60;;
1759;SDS011;877;46.266;20.062;2022-07-03T17:07:40;5.60;;;4.60;;
1759;SDS011;877;46.266;20.062;2022-07-03T17:10:09;6.80;;;4.87;;
1759;SDS011;877;46.266;20.062;2022-07-03T17:12:36;7.90;;;5.00;;
1759;SDS011;877;46.266;20.062;2022-07-03T17:15:05;6.53;;;5.33;;
1759;SDS011;877;46.266;20.062;2022-07-03T17:17:38;8.97;;;5.23;;
1759;SDS011;877;46.266;20.062;2022-07-03T17:20:17;11.93;;;5.70;;
1759;SDS011;877;46.266;20.062;2022-07-03T17:22:46;6.10;;;5.43;;
1759;SDS011;877;46.266;20.062;2022-07-03T17:25:17;10.63;;;5.67;;
1759;SDS011;877;46.266;20.062;2022-07-03T17:27:46;6.50;;;4.93;;
1759;SDS011;877;46.266;20.062;2022-07-03T17:30:12;6.73;;;4.87;;
1759;SDS011;877;46.266;20.062;2022-07-03T17:32:40;11.23;;;4.97;;
1759;SDS011;877;46.266;20.062;2022-07-03T17:35:08;7.73;;;5.50;;
1759;SDS011;877;46.266;20.062;2022-07-03T17:37:36;8.70;;;5.30;;
1759;SDS011;877;46.266;20.062;2022-07-03T17:40:04;9.30;;;5.83;;
1759;SDS011;877;46.266;20.062;2022-07-03T17:42:48;10.37;;;5.60;;
1759;SDS011;877;46.266;20.062;2022-07-03T17:45:16;9.00;;;5.27;;